sensor_id;sensor_type;location;lat;lon;timestamp;pressure;altitude;pressure_sealevel;temperature;humidity
30744;BME280;17486;46.738;7.622;2024-01-11T00:00:41;95826.16;;;1.09;68.93
30744;BME280;17486;46.738;7.622;2024-01-11T00:03:06;95829.56;;;1.11;68.95
30744;BME280;17486;46.738;7.622;2024-01-11T00:05:31;95831.25;;;1.14;68.80
30744;BME280;17486;46.738;7.622;2024-01-11T00:07:57;95839.78;;;1.10;68.96
30744;BME280;17486;46.738;7.622;2024-01-11T00:10:22;95844.94;;;1.11;68.79
30744;BME280;17486;46.738;7.622;2024-01-11T00:12:48;95809.97;;;0.90;68.97
30744;BME280;17486;46.738;7.622;2024-01-11T00:15:13;95836.38;;;1.11;68.69
30744;BME280;17486;46.738;7.622;2024-01-11T00:17:39;95838.13;;;1.09;68.86
30744;BME280;17486;46.738;7.622;2024-01-11T00:20:04;95844.06;;;1.12;68.40
30744;BME280;17486;46.738;7.622;2024-01-11T00:22:30;95838.09;;;1.12;68.29
30744;BME280;17486;46.738;7.622;2024-01-11T00:24:56;95847.50;;;1.11;68.35
30744;BME280;17486;46.738;7.622;2024-01-11T00:27:21;95845.78;;;1.13;68.45
30744;BME280;17486;46.738;7.622;2024-01-11T00:29:46;95848.31;;;1.15;68.47
30744;BME280;17486;46.738;7.622;2024-01-11T00:32:12;95850.88;;;1.16;68.10
30744;BME280;17486;46.738;7.622;2024-01-11T00:34:37;95842.38;;;1.11;68.23
30744;BME280;17486;46.738;7.622;2024-01-11T00:37:03;95844.94;;;1.11;68.14
30744;BME280;17486;46.738;7.622;2024-01-11T00:39:29;95850.91;;;1.10;68.21
30744;BME280;17486;46.738;7.622;2024-01-11T00:41:54;95850.91;;;1.09;68.63
30744;BME280;17486;46.738;7.622;2024-01-11T00:44:20;95819.41;;;0.87;68.20
30744;BME280;17486;46.738;7.622;2024-01-11T00:46:45;95842.38;;;1.01;68.47
30744;BME280;17486;46.738;7.622;2024-01-11T00:49:11;95851.75;;;1.05;68.53
30744;BME280;17486;46.738;7.622;2024-01-11T00:51:36;95841.53;;;0.95;68.79
30744;BME280;17486;46.738;7.622;2024-01-11T00:54:01;95848.38;;;1.03;68.32
30744;BME280;17486;46.738;7.622;2024-01-11T00:56:27;95848.38;;;1.01;68.38
30744;BME280;17486;46.738;7.622;2024-01-11T00:58:52;95842.41;;;0.96;68.31
30744;BME280;17486;46.738;7.622;2024-01-11T01:01:18;95851.78;;;0.97;68.71
30744;BME280;17486;46.738;7.622;2024-01-11T01:03:43;95844.13;;;0.98;68.39
30744;BME280;17486;46.738;7.622;2024-01-11T01:06:09;95839.00;;;0.91;68.80
30744;BME280;17486;46.738;7.622;2024-01-11T01:08:34;95836.44;;;0.91;68.88
30744;BME280;17486;46.738;7.622;2024-01-11T01:10:59;95841.56;;;0.92;68.95
30744;BME280;17486;46.738;7.622;2024-01-11T01:13:25;95845.81;;;0.95;68.91
30744;BME280;17486;46.738;7.622;2024-01-11T01:15:50;95852.66;;;0.94;68.89
30744;BME280;17486;46.738;7.622;2024-01-11T01:18:16;95844.97;;;0.96;68.45
30744;BME280;17486;46.738;7.622;2024-01-11T01:20:41;95848.38;;;0.96;68.63
30744;BME280;17486;46.738;7.622;2024-01-11T01:23:06;95848.38;;;1.03;68.61
30744;BME280;17486;46.738;7.622;2024-01-11T01:25:32;95851.75;;;1.05;68.21
30744;BME280;17486;46.738;7.622;2024-01-11T01:28:00;95849.25;;;0.98;68.51
30744;BME280;17486;46.738;7.622;2024-01-11T01:30:26;95845.81;;;0.95;68.32
30744;BME280;17486;46.738;7.622;2024-01-11T01:32:52;95850.94;;;1.01;68.29
30744;BME280;17486;46.738;7.622;2024-01-11T01:35:18;95848.34;;;0.99;68.50
30744;BME280;17486;46.738;7.622;2024-01-11T01:37:43;95853.50;;;0.96;68.50
30744;BME280;17486;46.738;7.622;2024-01-11T01:40:09;95856.06;;;0.95;68.83
30744;BME280;17486;46.738;7.622;2024-01-11T01:42:34;95866.28;;;0.98;68.50
30744;BME280;17486;46.738;7.622;2024-01-11T01:45:00;95863.78;;;0.92;68.91
30744;BME280;17486;46.738;7.622;2024-01-11T01:47:26;95873.13;;;0.91;68.69
30744;BME280;17486;46.738;7.622;2024-01-11T01:49:53;95869.75;;;0.85;68.83
30744;BME280;17486;46.738;7.622;2024-01-11T01:52:19;95880.84;;;0.87;69.00
30744;BME280;17486;46.738;7.622;2024-01-11T01:54:45;95887.66;;;0.88;68.89
30744;BME280;17486;46.738;7.622;2024-01-11T01:57:12;95861.22;;;0.69;68.95
30744;BME280;17486;46.738;7.622;2024-01-11T01:59:39;95890.22;;;0.89;68.74
30744;BME280;17486;46.738;7.622;2024-01-11T02:02:05;95908.16;;;0.89;68.91
30744;BME280;17486;46.738;7.622;2024-01-11T02:04:31;95889.38;;;0.81;68.53
30744;BME280;17486;46.738;7.622;2024-01-11T02:06:57;95894.50;;;0.79;69.03
30744;BME280;17486;46.738;7.622;2024-01-11T02:09:24;95897.06;;;0.86;68.65
30744;BME280;17486;46.738;7.622;2024-01-11T02:11:51;95903.03;;;0.89;68.63
30744;BME280;17486;46.738;7.622;2024-01-11T02:14:17;95898.78;;;0.87;69.00
30744;BME280;17486;46.738;7.622;2024-01-11T02:16:42;95895.34;;;0.85;68.66
30744;BME280;17486;46.738;7.622;2024-01-11T02:19:12;95843.34;;;0.52;69.17
30744;BME280;17486;46.738;7.622;2024-01-11T02:21:38;95896.22;;;0.80;68.90
30744;BME280;17486;46.738;7.622;2024-01-11T02:24:06;95892.78;;;0.85;68.88
30744;BME280;17486;46.738;7.622;2024-01-11T02:26:32;95893.63;;;0.83;69.00
30744;BME280;17486;46.738;7.622;2024-01-11T02:28:57;95880.84;;;0.83;69.31
30744;BME280;17486;46.738;7.622;2024-01-11T02:31:24;95889.38;;;0.84;68.99
30744;BME280;17486;46.738;7.622;2024-01-11T02:33:51;95888.50;;;0.85;68.91
30744;BME280;17486;46.738;7.622;2024-01-11T02:36:16;95886.81;;;0.79;69.39
30744;BME280;17486;46.738;7.622;2024-01-11T02:38:42;95893.63;;;0.83;69.32
30744;BME280;17486;46.738;7.622;2024-01-11T02:41:08;95880.00;;;0.83;69.32
30744;BME280;17486;46.738;7.622;2024-01-11T02:43:34;95886.81;;;0.82;68.89
30744;BME280;17486;46.738;7.622;2024-01-11T02:46:02;95885.97;;;0.87;69.27
30744;BME280;17486;46.738;7.622;2024-01-11T02:48:30;95885.94;;;0.83;69.00
30744;BME280;17486;46.738;7.622;2024-01-11T02:50:57;95888.53;;;0.80;69.10
30744;BME280;17486;46.738;7.622;2024-01-11T02:53:23;95884.25;;;0.78;69.17
30744;BME280;17486;46.738;7.622;2024-01-11T02:55:50;95891.09;;;0.80;69.61
30744;BME280;17486;46.738;7.622;2024-01-11T02:58:15;95891.94;;;0.86;69.13
30744;BME280;17486;46.738;7.622;2024-01-11T03:00:40;95889.38;;;0.87;68.99
30744;BME280;17486;46.738;7.622;2024-01-11T03:03:06;95879.97;;;0.85;69.05
30744;BME280;17486;46.738;7.622;2024-01-11T03:05:31;95855.25;;;0.68;68.88
30744;BME280;17486;46.738;7.622;2024-01-11T03:07:56;95887.66;;;0.91;69.21
30744;BME280;17486;46.738;7.622;2024-01-11T03:10:22;95897.03;;;0.95;69.01
30744;BME280;17486;46.738;7.622;2024-01-11T03:12:48;95885.09;;;0.94;68.83
30744;BME280;17486;46.738;7.622;2024-01-11T03:15:14;95894.50;;;0.93;69.14
30744;BME280;17486;46.738;7.622;2024-01-11T03:17:40;95879.13;;;0.84;69.27
30744;BME280;17486;46.738;7.622;2024-01-11T03:20:06;95887.66;;;0.88;68.97
30744;BME280;17486;46.738;7.622;2024-01-11T03:22:31;95855.25;;;0.71;69.20
30744;BME280;17486;46.738;7.622;2024-01-11T03:24:57;95873.16;;;0.87;69.26
30744;BME280;17486;46.738;7.622;2024-01-11T03:27:22;95875.72;;;0.88;69.05
30744;BME280;17486;46.738;7.622;2024-01-11T03:29:47;95876.53;;;0.90;69.00
30744;BME280;17486;46.738;7.622;2024-01-11T03:32:14;95870.59;;;0.90;68.80
30744;BME280;17486;46.738;7.622;2024-01-11T03:34:40;95878.28;;;0.90;68.87
30744;BME280;17486;46.738;7.622;2024-01-11T03:37:05;95876.56;;;0.89;69.00
30744;BME280;17486;46.738;7.622;2024-01-11T03:39:30;95868.03;;;0.87;69.17
30744;BME280;17486;46.738;7.622;2024-01-11T03:41:56;95867.19;;;0.91;69.20
30744;BME280;17486;46.738;7.622;2024-01-11T03:44:22;95870.59;;;0.88;69.05
30744;BME280;17486;46.738;7.622;2024-01-11T03:46:47;95868.88;;;0.90;68.68
30744;BME280;17486;46.738;7.622;2024-01-11T03:49:13;95862.91;;;0.87;68.97
30744;BME280;17486;46.738;7.622;2024-01-11T03:51:38;95865.47;;;0.88;69.20
30744;BME280;17486;46.738;7.622;2024-01-11T03:54:04;95871.44;;;0.92;69.27
30744;BME280;17486;46.738;7.622;2024-01-11T03:56:29;95874.00;;;0.93;68.95
30744;BME280;17486;46.738;7.622;2024-01-11T03:58:55;95868.03;;;0.83;68.90
30744;BME280;17486;46.738;7.622;2024-01-11T04:01:20;95877.41;;;0.88;69.31
30744;BME280;17486;46.738;7.622;2024-01-11T04:03:46;95875.72;;;0.90;68.91
30744;BME280;17486;46.738;7.622;2024-01-11T04:06:21;95865.47;;;0.87;69.04
30744;BME280;17486;46.738;7.622;2024-01-11T04:08:48;95862.06;;;0.85;69.21
30744;BME280;17486;46.738;7.622;2024-01-11T04:11:13;95862.03;;;0.88;69.28
30744;BME280;17486;46.738;7.622;2024-01-11T04:13:39;95868.88;;;0.87;69.57
30744;BME280;17486;46.738;7.622;2024-01-11T04:16:07;95844.13;;;0.78;69.64
30744;BME280;17486;46.738;7.622;2024-01-11T04:18:33;95859.50;;;0.85;69.48
30744;BME280;17486;46.738;7.622;2024-01-11T04:20:58;95862.06;;;0.85;69.81
30744;BME280;17486;46.738;7.622;2024-01-11T04:23:24;95858.66;;;0.84;69.88
30744;BME280;17486;46.738;7.622;2024-01-11T04:25:49;95858.63;;;0.82;69.89
30744;BME280;17486;46.738;7.622;2024-01-11T04:28:16;95857.81;;;0.87;69.47
30744;BME280;17486;46.738;7.622;2024-01-11T04:30:42;95861.19;;;0.82;69.60
30744;BME280;17486;46.738;7.622;2024-01-11T04:33:07;95851.84;;;0.81;69.51
30744;BME280;17486;46.738;7.622;2024-01-11T04:35:33;95846.69;;;0.78;69.36
30744;BME280;17486;46.738;7.622;2024-01-11T04:37:58;95862.91;;;0.90;69.69
30744;BME280;17486;46.738;7.622;2024-01-11T04:40:23;95857.78;;;0.90;69.66
30744;BME280;17486;46.738;7.622;2024-01-11T04:42:49;95857.81;;;0.87;69.31
30744;BME280;17486;46.738;7.622;2024-01-11T04:45:14;95857.81;;;0.87;69.55
30744;BME280;17486;46.738;7.622;2024-01-11T04:47:40;95859.50;;;0.86;69.17
30744;BME280;17486;46.738;7.622;2024-01-11T04:50:06;95857.78;;;0.85;69.51
30744;BME280;17486;46.738;7.622;2024-01-11T04:52:32;95850.09;;;0.85;69.52
30744;BME280;17486;46.738;7.622;2024-01-11T04:54:57;95845.84;;;0.86;69.67
30744;BME280;17486;46.738;7.622;2024-01-11T04:57:23;95829.63;;;0.80;69.51
30744;BME280;17486;46.738;7.622;2024-01-11T04:59:48;95840.72;;;0.86;69.07
30744;BME280;17486;46.738;7.622;2024-01-11T05:02:13;95830.50;;;0.84;69.57
30744;BME280;17486;46.738;7.622;2024-01-11T05:04:39;95825.38;;;0.84;69.46
30744;BME280;17486;46.738;7.622;2024-01-11T05:07:04;95821.09;;;0.86;69.25
30744;BME280;17486;46.738;7.622;2024-01-11T05:09:29;95835.59;;;0.89;68.99
30744;BME280;17486;46.738;7.622;2024-01-11T05:11:55;95835.59;;;0.89;68.95
30744;BME280;17486;46.738;7.622;2024-01-11T05:14:20;95833.03;;;0.86;69.15
30744;BME280;17486;46.738;7.622;2024-01-11T05:16:45;95828.75;;;0.86;69.27
30744;BME280;17486;46.738;7.622;2024-01-11T05:19:11;95822.78;;;0.87;68.78
30744;BME280;17486;46.738;7.622;2024-01-11T05:21:36;95823.66;;;0.85;68.84
30744;BME280;17486;46.738;7.622;2024-01-11T05:24:02;95825.38;;;0.86;68.90
30744;BME280;17486;46.738;7.622;2024-01-11T05:26:27;95830.47;;;0.92;69.20
30744;BME280;17486;46.738;7.622;2024-01-11T05:28:52;95825.34;;;0.90;68.82
30744;BME280;17486;46.738;7.622;2024-01-11T05:31:18;95834.72;;;0.96;68.43
30744;BME280;17486;46.738;7.622;2024-01-11T05:33:44;95823.66;;;0.86;68.56
30744;BME280;17486;46.738;7.622;2024-01-11T05:36:11;95807.44;;;0.84;68.52
30744;BME280;17486;46.738;7.622;2024-01-11T05:38:38;95827.91;;;0.93;68.20
30744;BME280;17486;46.738;7.622;2024-01-11T05:41:04;95827.03;;;0.96;68.22
30744;BME280;17486;46.738;7.622;2024-01-11T05:43:29;95830.44;;;0.98;68.02
30744;BME280;17486;46.738;7.622;2024-01-11T05:45:54;95815.94;;;0.88;67.92
30744;BME280;17486;46.738;7.622;2024-01-11T05:48:20;95826.19;;;0.94;68.42
30744;BME280;17486;46.738;7.622;2024-01-11T05:50:45;95831.28;;;0.97;68.56
30744;BME280;17486;46.738;7.622;2024-01-11T05:53:11;95813.41;;;0.91;68.27
30744;BME280;17486;46.738;7.622;2024-01-11T05:55:37;95831.31;;;0.98;68.48
30744;BME280;17486;46.738;7.622;2024-01-11T05:58:03;95821.06;;;0.98;68.44
30744;BME280;17486;46.738;7.622;2024-01-11T06:00:28;95805.72;;;0.88;68.29
30744;BME280;17486;46.738;7.622;2024-01-11T06:02:54;95823.63;;;1.00;68.07
30744;BME280;17486;46.738;7.622;2024-01-11T06:05:19;95824.47;;;0.99;67.93
30744;BME280;17486;46.738;7.622;2024-01-11T06:07:44;95826.19;;;0.98;67.72
30744;BME280;17486;46.738;7.622;2024-01-11T06:10:10;95834.72;;;0.99;68.23
30744;BME280;17486;46.738;7.622;2024-01-11T06:12:35;95831.28;;;0.97;67.75
30744;BME280;17486;46.738;7.622;2024-01-11T06:15:01;95837.28;;;0.96;67.56
30744;BME280;17486;46.738;7.622;2024-01-11T06:17:27;95811.72;;;0.79;67.75
30744;BME280;17486;46.738;7.622;2024-01-11T06:19:53;95831.31;;;0.91;67.41
30744;BME280;17486;46.738;7.622;2024-01-11T06:22:18;95838.97;;;0.97;67.50
30744;BME280;17486;46.738;7.622;2024-01-11T06:24:44;95810.00;;;0.78;67.52
30744;BME280;17486;46.738;7.622;2024-01-11T06:27:09;95839.84;;;0.96;67.59
30744;BME280;17486;46.738;7.622;2024-01-11T06:29:34;95844.97;;;0.96;67.45
30744;BME280;17486;46.738;7.622;2024-01-11T06:32:00;95840.72;;;0.93;67.27
30744;BME280;17486;46.738;7.622;2024-01-11T06:34:25;95849.22;;;0.94;67.28
30744;BME280;17486;46.738;7.622;2024-01-11T06:36:50;95843.28;;;0.93;67.41
30744;BME280;17486;46.738;7.622;2024-01-11T06:39:16;95845.81;;;0.96;66.88
30744;BME280;17486;46.738;7.622;2024-01-11T06:41:42;95845.81;;;0.98;66.80
30744;BME280;17486;46.738;7.622;2024-01-11T06:44:07;95841.53;;;0.97;66.80
30744;BME280;17486;46.738;7.622;2024-01-11T06:46:32;95836.44;;;0.88;66.76
30744;BME280;17486;46.738;7.622;2024-01-11T06:48:58;95854.34;;;0.97;66.83
30744;BME280;17486;46.738;7.622;2024-01-11T06:51:23;95850.09;;;0.91;66.34
30744;BME280;17486;46.738;7.622;2024-01-11T06:53:49;95846.69;;;0.92;66.69
30744;BME280;17486;46.738;7.622;2024-01-11T06:56:16;95847.53;;;0.90;66.29
30744;BME280;17486;46.738;7.622;2024-01-11T06:58:44;95857.78;;;0.90;66.58
30744;BME280;17486;46.738;7.622;2024-01-11T07:01:10;95846.69;;;0.89;66.37
30744;BME280;17486;46.738;7.622;2024-01-11T07:03:36;95856.94;;;0.91;66.05
30744;BME280;17486;46.738;7.622;2024-01-11T07:06:01;95856.09;;;0.92;66.41
30744;BME280;17486;46.738;7.622;2024-01-11T07:08:28;95853.50;;;0.89;66.32
30744;BME280;17486;46.738;7.622;2024-01-11T07:10:53;95857.75;;;0.99;66.56
30744;BME280;17486;46.738;7.622;2024-01-11T07:13:19;95868.00;;;1.11;66.21
30744;BME280;17486;46.738;7.622;2024-01-11T07:15:44;95859.44;;;1.15;67.60
30744;BME280;17486;46.738;7.622;2024-01-11T07:18:10;95853.44;;;1.16;66.86
30744;BME280;17486;46.738;7.622;2024-01-11T07:20:35;95870.53;;;1.21;66.27
30744;BME280;17486;46.738;7.622;2024-01-11T07:23:00;95877.34;;;1.23;65.73
30744;BME280;17486;46.738;7.622;2024-01-11T07:25:26;95874.78;;;1.19;66.01
30744;BME280;17486;46.738;7.622;2024-01-11T07:27:51;95876.50;;;1.20;65.35
30744;BME280;17486;46.738;7.622;2024-01-11T07:30:17;95833.03;;;0.90;65.28
30744;BME280;17486;46.738;7.622;2024-01-11T07:32:46;95878.22;;;1.14;64.96
30744;BME280;17486;46.738;7.622;2024-01-11T07:35:11;95884.19;;;1.13;65.03
30744;BME280;17486;46.738;7.622;2024-01-11T07:37:38;95876.50;;;1.07;64.86
30744;BME280;17486;46.738;7.622;2024-01-11T07:40:04;95892.75;;;1.09;65.12
30744;BME280;17486;46.738;7.622;2024-01-11T07:42:29;95882.53;;;1.00;64.81
30744;BME280;17486;46.738;7.622;2024-01-11T07:44:55;95883.38;;;0.99;65.07
30744;BME280;17486;46.738;7.622;2024-01-11T07:47:20;95909.84;;;1.09;64.66
30744;BME280;17486;46.738;7.622;2024-01-11T07:49:45;95903.84;;;1.08;65.08
30744;BME280;17486;46.738;7.622;2024-01-11T07:52:11;95909.84;;;1.09;64.89
30744;BME280;17486;46.738;7.622;2024-01-11T07:54:36;95896.19;;;0.93;64.53
30744;BME280;17486;46.738;7.622;2024-01-11T07:57:03;95915.81;;;0.97;64.62
30744;BME280;17486;46.738;7.622;2024-01-11T07:59:32;95927.75;;;0.98;64.21
30744;BME280;17486;46.738;7.622;2024-01-11T08:01:58;95927.75;;;0.98;64.35
30744;BME280;17486;46.738;7.622;2024-01-11T08:04:23;95938.88;;;0.98;64.87
30744;BME280;17486;46.738;7.622;2024-01-11T08:06:49;95939.72;;;0.99;64.77
30744;BME280;17486;46.738;7.622;2024-01-11T08:09:14;95938.84;;;0.97;64.40
30744;BME280;17486;46.738;7.622;2024-01-11T08:11:40;95948.25;;;1.01;64.65
30744;BME280;17486;46.738;7.622;2024-01-11T08:14:06;95948.25;;;1.03;64.32
30744;BME280;17486;46.738;7.622;2024-01-11T08:16:32;95948.25;;;1.03;64.03
30744;BME280;17486;46.738;7.622;2024-01-11T08:18:58;95946.53;;;0.97;64.22
30744;BME280;17486;46.738;7.622;2024-01-11T08:21:23;95955.94;;;1.01;64.71
30744;BME280;17486;46.738;7.622;2024-01-11T08:23:49;95958.50;;;1.01;64.34
30744;BME280;17486;46.738;7.622;2024-01-11T08:26:15;95922.66;;;0.79;64.61
30744;BME280;17486;46.738;7.622;2024-01-11T08:28:41;95958.50;;;0.95;64.74
30744;BME280;17486;46.738;7.622;2024-01-11T08:31:07;95946.53;;;0.94;65.08
30744;BME280;17486;46.738;7.622;2024-01-11T08:33:34;95958.50;;;0.98;64.93
30744;BME280;17486;46.738;7.622;2024-01-11T08:35:59;95955.94;;;1.01;64.92
30744;BME280;17486;46.738;7.622;2024-01-11T08:38:24;95949.94;;;1.02;65.18
30744;BME280;17486;46.738;7.622;2024-01-11T08:40:50;95954.22;;;1.02;65.26
30744;BME280;17486;46.738;7.622;2024-01-11T08:43:16;95955.94;;;1.03;64.75
30744;BME280;17486;46.738;7.622;2024-01-11T08:45:41;95948.25;;;1.04;65.31
30744;BME280;17486;46.738;7.622;2024-01-11T08:48:08;95955.09;;;1.05;64.61
30744;BME280;17486;46.738;7.622;2024-01-11T08:50:35;95947.41;;;1.01;65.04
30744;BME280;17486;46.738;7.622;2024-01-11T08:53:00;95935.44;;;0.96;64.99
30744;BME280;17486;46.738;7.622;2024-01-11T08:55:25;95939.72;;;0.96;64.83
30744;BME280;17486;46.738;7.622;2024-01-11T08:57:52;95933.75;;;1.00;64.81
30744;BME280;17486;46.738;7.622;2024-01-11T09:00:17;95939.69;;;1.02;64.86
30744;BME280;17486;46.738;7.622;2024-01-11T09:02:43;95942.31;;;0.94;64.87
30744;BME280;17486;46.738;7.622;2024-01-11T09:05:09;95949.97;;;0.93;64.98
30744;BME280;17486;46.738;7.622;2024-01-11T09:07:34;95938.88;;;0.86;65.60
30744;BME280;17486;46.738;7.622;2024-01-11T09:10:00;95944.00;;;0.86;65.32
30744;BME280;17486;46.738;7.622;2024-01-11T09:12:25;95934.59;;;0.83;65.41
30744;BME280;17486;46.738;7.622;2024-01-11T09:14:50;95938.03;;;0.87;65.84
30744;BME280;17486;46.738;7.622;2024-01-11T09:17:16;95943.16;;;0.92;65.54
30744;BME280;17486;46.738;7.622;2024-01-11T09:19:41;95935.47;;;0.93;65.69
30744;BME280;17486;46.738;7.622;2024-01-11T09:22:06;95936.28;;;0.97;65.27
30744;BME280;17486;46.738;7.622;2024-01-11T09:24:35;95927.78;;;0.89;65.37
30744;BME280;17486;46.738;7.622;2024-01-11T09:27:00;95941.41;;;1.02;65.71
30744;BME280;17486;46.738;7.622;2024-01-11T09:29:26;95946.53;;;1.03;65.29
30744;BME280;17486;46.738;7.622;2024-01-11T09:31:53;95948.25;;;1.04;65.38
30744;BME280;17486;46.738;7.622;2024-01-11T09:34:18;95950.81;;;1.01;65.67
30744;BME280;17486;46.738;7.622;2024-01-11T09:36:44;95955.94;;;1.06;65.23
30744;BME280;17486;46.738;7.622;2024-01-11T09:39:10;95948.25;;;0.99;65.15
30744;BME280;17486;46.738;7.622;2024-01-11T09:41:41;95958.47;;;1.07;65.59
30744;BME280;17486;46.738;7.622;2024-01-11T09:44:09;95961.06;;;1.06;65.60
30744;BME280;17486;46.738;7.622;2024-01-11T09:46:34;95961.91;;;1.09;65.51
30744;BME280;17486;46.738;7.622;2024-01-11T09:49:02;95961.91;;;1.11;65.10
30744;BME280;17486;46.738;7.622;2024-01-11T09:51:29;95971.31;;;1.12;65.42
30744;BME280;17486;46.738;7.622;2024-01-11T09:53:55;95948.25;;;0.98;65.04
30744;BME280;17486;46.738;7.622;2024-01-11T09:56:22;95973.00;;;1.14;65.55
30744;BME280;17486;46.738;7.622;2024-01-11T09:58:49;95959.31;;;1.14;65.51
30744;BME280;17486;46.738;7.622;2024-01-11T10:01:14;95917.53;;;0.93;65.13
30744;BME280;17486;46.738;7.622;2024-01-11T10:03:40;95960.19;;;1.21;65.41
30744;BME280;17486;46.738;7.622;2024-01-11T10:06:09;95956.75;;;1.20;65.06
30744;BME280;17486;46.738;7.622;2024-01-11T10:08:35;95955.91;;;1.15;65.31
30744;BME280;17486;46.738;7.622;2024-01-11T10:11:01;95954.22;;;1.15;65.21
30744;BME280;17486;46.738;7.622;2024-01-11T10:13:30;95955.94;;;1.18;64.82
30744;BME280;17486;46.738;7.622;2024-01-11T10:16:05;95949.94;;;1.18;64.70
30744;BME280;17486;46.738;7.622;2024-01-11T10:18:32;95953.34;;;1.23;64.88
30744;BME280;17486;46.738;7.622;2024-01-11T10:20:57;95956.78;;;1.19;64.63
30744;BME280;17486;46.738;7.622;2024-01-11T10:23:23;95952.50;;;1.18;64.45
30744;BME280;17486;46.738;7.622;2024-01-11T10:25:48;95954.19;;;1.20;64.84
30744;BME280;17486;46.738;7.622;2024-01-11T10:28:13;95956.75;;;1.20;65.23
30744;BME280;17486;46.738;7.622;2024-01-11T10:30:39;95960.19;;;1.18;64.82
30744;BME280;17486;46.738;7.622;2024-01-11T10:33:07;95955.06;;;1.24;65.25
30744;BME280;17486;46.738;7.622;2024-01-11T10:35:33;95958.47;;;1.26;65.12
30744;BME280;17486;46.738;7.622;2024-01-11T10:38:03;95956.78;;;1.25;65.33
30744;BME280;17486;46.738;7.622;2024-01-11T10:40:33;95951.66;;;1.19;64.98
30744;BME280;17486;46.738;7.622;2024-01-11T10:42:59;95967.00;;;1.28;64.91
30744;BME280;17486;46.738;7.622;2024-01-11T10:45:27;95957.59;;;1.28;65.04
30744;BME280;17486;46.738;7.622;2024-01-11T10:47:55;95961.88;;;1.26;64.40
30744;BME280;17486;46.738;7.622;2024-01-11T10:50:23;95955.06;;;1.25;64.65
30744;BME280;17486;46.738;7.622;2024-01-11T10:55:41;95955.88;;;1.38;66.35
30744;BME280;17486;46.738;7.622;2024-01-11T10:58:12;95957.56;;;1.56;68.02
30744;BME280;17486;46.738;7.622;2024-01-11T11:00:39;95955.81;;;1.66;67.54
30744;BME280;17486;46.738;7.622;2024-01-11T11:03:05;95955.75;;;1.77;67.36
30744;BME280;17486;46.738;7.622;2024-01-11T11:05:34;95955.78;;;1.78;66.67
30744;BME280;17486;46.738;7.622;2024-01-11T11:08:01;95955.78;;;1.78;65.82
30744;BME280;17486;46.738;7.622;2024-01-11T11:10:31;95929.31;;;1.65;65.51
30744;BME280;17486;46.738;7.622;2024-01-11T11:12:58;95940.41;;;1.72;65.08
30744;BME280;17486;46.738;7.622;2024-01-11T11:15:26;95936.13;;;1.65;64.87
30744;BME280;17486;46.738;7.622;2024-01-11T11:17:52;95926.75;;;1.64;64.68
30744;BME280;17486;46.738;7.622;2024-01-11T11:20:18;95931.03;;;1.56;65.02
30744;BME280;17486;46.738;7.622;2024-01-11T11:23:04;95925.94;;;1.54;64.73
30744;BME280;17486;46.738;7.622;2024-01-11T11:25:30;95926.78;;;1.53;65.00
30744;BME280;17486;46.738;7.622;2024-01-11T11:27:56;95925.94;;;1.54;64.65
30744;BME280;17486;46.738;7.622;2024-01-11T11:30:21;95923.38;;;1.54;64.71
30744;BME280;17486;46.738;7.622;2024-01-11T11:32:47;95914.84;;;1.49;64.92
30744;BME280;17486;46.738;7.622;2024-01-11T11:35:12;95886.69;;;1.37;64.85
30744;BME280;17486;46.738;7.622;2024-01-11T11:37:38;95910.53;;;1.59;64.87
30744;BME280;17486;46.738;7.622;2024-01-11T11:40:06;95882.41;;;1.37;64.75
30744;BME280;17486;46.738;7.622;2024-01-11T11:42:32;95919.94;;;1.58;65.00
30744;BME280;17486;46.738;7.622;2024-01-11T11:44:59;95923.34;;;1.60;64.54
30744;BME280;17486;46.738;7.622;2024-01-11T11:47:33;95926.78;;;1.58;64.47
30744;BME280;17486;46.738;7.622;2024-01-11T11:50:06;95910.56;;;1.53;64.66
30744;BME280;17486;46.738;7.622;2024-01-11T11:52:33;95926.75;;;1.64;64.49
30744;BME280;17486;46.738;7.622;2024-01-11T11:55:01;95921.66;;;1.58;64.50
30744;BME280;17486;46.738;7.622;2024-01-11T11:57:27;95925.88;;;1.65;64.26
30744;BME280;17486;46.738;7.622;2024-01-11T11:59:56;95931.88;;;1.65;64.05
30744;BME280;17486;46.738;7.622;2024-01-11T12:02:22;95931.06;;;1.59;64.24
30744;BME280;17486;46.738;7.622;2024-01-11T12:04:49;95917.38;;;1.57;64.48
30744;BME280;17486;46.738;7.622;2024-01-11T12:07:14;95913.09;;;1.56;64.11
30744;BME280;17486;46.738;7.622;2024-01-11T12:09:41;95908.84;;;1.56;64.30
30744;BME280;17486;46.738;7.622;2024-01-11T12:12:06;95915.66;;;1.60;64.70
30744;BME280;17486;46.738;7.622;2024-01-11T12:14:33;95909.69;;;1.61;64.26
30744;BME280;17486;46.738;7.622;2024-01-11T12:16:59;95908.81;;;1.64;64.26
30744;BME280;17486;46.738;7.622;2024-01-11T12:19:25;95906.25;;;1.64;64.29
30744;BME280;17486;46.738;7.622;2024-01-11T12:21:51;95913.94;;;1.65;64.39
30744;BME280;17486;46.738;7.622;2024-01-11T12:24:17;95913.06;;;1.65;64.06
30744;BME280;17486;46.738;7.622;2024-01-11T12:26:45;95907.97;;;1.62;64.33
30744;BME280;17486;46.738;7.622;2024-01-11T12:29:13;95911.38;;;1.65;64.34
30744;BME280;17486;46.738;7.622;2024-01-11T12:31:38;95902.00;;;1.60;64.36
30744;BME280;17486;46.738;7.622;2024-01-11T12:34:04;95907.94;;;1.65;64.65
30744;BME280;17486;46.738;7.622;2024-01-11T12:36:30;95911.34;;;1.69;64.26
30744;BME280;17486;46.738;7.622;2024-01-11T12:38:57;95913.91;;;1.70;64.35
30744;BME280;17486;46.738;7.622;2024-01-11T12:41:24;95906.22;;;1.69;64.16
30744;BME280;17486;46.738;7.622;2024-01-11T12:43:49;95897.69;;;1.68;64.26
30744;BME280;17486;46.738;7.622;2024-01-11T12:46:15;95897.69;;;1.68;64.42
30744;BME280;17486;46.738;7.622;2024-01-11T12:48:41;95901.94;;;1.72;65.00
30744;BME280;17486;46.738;7.622;2024-01-11T12:51:07;95897.59;;;1.82;66.92
30744;BME280;17486;46.738;7.622;2024-01-11T12:53:32;95854.91;;;1.75;68.54
30744;BME280;17486;46.738;7.622;2024-01-11T12:56:07;95890.59;;;2.17;69.04
30744;BME280;17486;46.738;7.622;2024-01-11T12:58:38;95858.94;;;2.18;68.18
30744;BME280;17486;46.738;7.622;2024-01-11T13:01:07;95876.72;;;2.45;67.98
30744;BME280;17486;46.738;7.622;2024-01-11T13:03:38;95890.28;;;2.57;66.92
30744;BME280;17486;46.738;7.622;2024-01-11T13:06:04;95876.56;;;2.64;65.46